sensor_id;sensor_type;location;lat;lon;timestamp;P1;durP1;ratioP1;P2;durP2;ratioP2
11681;SDS011;5897;42.640;23.310;2023-08-07T00:02:00;1.50;;;1.40;;
11681;SDS011;5897;42.640;23.310;2023-08-07T00:04:28;1.30;;;1.30;;
11681;SDS011;5897;42.640;23.310;2023-08-07T00:06:55;1.45;;;1.35;;
11681;SDS011;5897;42.640;23.310;2023-08-07T00:09:23;1.40;;;1.30;;
11681;SDS011;5897;42.640;23.310;2023-08-07T00:11:50;1.27;;;1.23;;
11681;SDS011;5897;42.640;23.310;2023-08-07T00:14:16;1.45;;;1.35;;
11681;SDS011;5897;42.640;23.310;2023-08-07T00:16:43;1.40;;;1.30;;
11681;SDS011;5897;42.640;23.310;2023-08-07T00:19:10;1.27;;;1.10;;
11681;SDS011;5897;42.640;23.310;2023-08-07T00:21:37;1.05;;;1.05;;
11681;SDS011;5897;42.640;23.310;2023-08-07T00:24:04;1.35;;;1.27;;
11681;SDS011;5897;42.640;23.310;2023-08-07T00:26:32;1.38;;;1.30;;
11681;SDS011;5897;42.640;23.310;2023-08-07T00:28:59;1.48;;;1.20;;
11681;SDS011;5897;42.640;23.310;2023-08-07T00:31:26;1.13;;;1.10;;
11681;SDS011;5897;42.640;23.310;2023-08-07T00:33:56;1.40;;;1.30;;
11681;SDS011;5897;42.640;23.310;2023-08-07T00:36:22;1.40;;;1.30;;
11681;SDS011;5897;42.640;23.310;2023-08-07T00:38:49;1.65;;;1.38;;
11681;SDS011;5897;42.640;23.310;2023-08-07T00:41:16;1.40;;;1.30;;
11681;SDS011;5897;42.640;23.310;2023-08-07T00:43:45;1.83;;;1.52;;
11681;SDS011;5897;42.640;23.310;2023-08-07T00:46:12;1.52;;;1.42;;
11681;SDS011;5897;42.640;23.310;2023-08-07T00:48:38;1.50;;;1.40;;
11681;SDS011;5897;42.640;23.310;2023-08-07T00:51:05;1.58;;;1.48;;
11681;SDS011;5897;42.640;23.310;2023-08-07T00:53:33;1.40;;;1.30;;
11681;SDS011;5897;42.640;23.310;2023-08-07T00:56:01;1.55;;;1.42;;
11681;SDS011;5897;42.640;23.310;2023-08-07T00:58:28;2.22;;;1.55;;
11681;SDS011;5897;42.640;23.310;2023-08-07T01:00:57;1.50;;;1.40;;
11681;SDS011;5897;42.640;23.310;2023-08-07T01:03:24;1.60;;;1.48;;
11681;SDS011;5897;42.640;23.310;2023-08-07T01:05:51;1.45;;;1.35;;
11681;SDS011;5897;42.640;23.310;2023-08-07T01:08:18;1.63;;;1.45;;
11681;SDS011;5897;42.640;23.310;2023-08-07T01:10:49;1.95;;;1.73;;
11681;SDS011;5897;42.640;23.310;2023-08-07T01:13:29;1.65;;;1.55;;
11681;SDS011;5897;42.640;23.310;2023-08-07T01:16:06;1.60;;;1.50;;
11681;SDS011;5897;42.640;23.310;2023-08-07T01:18:40;1.88;;;1.48;;
11681;SDS011;5897;42.640;23.310;2023-08-07T01:21:16;1.95;;;1.63;;
11681;SDS011;5897;42.640;23.310;2023-08-07T01:23:45;1.60;;;1.50;;
11681;SDS011;5897;42.640;23.310;2023-08-07T01:26:12;1.48;;;1.38;;
11681;SDS011;5897;42.640;23.310;2023-08-07T01:28:41;1.52;;;1.42;;
11681;SDS011;5897;42.640;23.310;2023-08-07T01:31:13;1.60;;;1.50;;
11681;SDS011;5897;42.640;23.310;2023-08-07T01:33:43;1.65;;;1.55;;
11681;SDS011;5897;42.640;23.310;2023-08-07T01:36:14;1.60;;;1.50;;
11681;SDS011;5897;42.640;23.310;2023-08-07T01:38:42;2.20;;;1.50;;
11681;SDS011;5897;42.640;23.310;2023-08-07T01:41:12;1.63;;;1.52;;
11681;SDS011;5897;42.640;23.310;2023-08-07T01:43:39;1.80;;;1.70;;
11681;SDS011;5897;42.640;23.310;2023-08-07T01:46:06;1.80;;;1.70;;
11681;SDS011;5897;42.640;23.310;2023-08-07T01:48:33;1.70;;;1.60;;
11681;SDS011;5897;42.640;23.310;2023-08-07T01:50:59;1.63;;;1.52;;
11681;SDS011;5897;42.640;23.310;2023-08-07T01:53:26;1.83;;;1.73;;
11681;SDS011;5897;42.640;23.310;2023-08-07T01:55:54;1.80;;;1.70;;
11681;SDS011;5897;42.640;23.310;2023-08-07T01:58:21;1.77;;;1.52;;
11681;SDS011;5897;42.640;23.310;2023-08-07T02:00:48;1.63;;;1.52;;
11681;SDS011;5897;42.640;23.310;2023-08-07T02:03:15;1.60;;;1.50;;
11681;SDS011;5897;42.640;23.310;2023-08-07T02:05:44;2.58;;;1.77;;
11681;SDS011;5897;42.640;23.310;2023-08-07T02:08:11;1.70;;;1.60;;
11681;SDS011;5897;42.640;23.310;2023-08-07T02:10:38;1.60;;;1.50;;
11681;SDS011;5897;42.640;23.310;2023-08-07T02:13:06;1.70;;;1.60;;
11681;SDS011;5897;42.640;23.310;2023-08-07T02:15:33;1.63;;;1.52;;
11681;SDS011;5897;42.640;23.310;2023-08-07T02:18:00;1.50;;;1.40;;
11681;SDS011;5897;42.640;23.310;2023-08-07T02:20:26;1.52;;;1.42;;
11681;SDS011;5897;42.640;23.310;2023-08-07T02:22:53;2.47;;;1.30;;
11681;SDS011;5897;42.640;23.310;2023-08-07T02:25:20;1.70;;;1.40;;
11681;SDS011;5897;42.640;23.310;2023-08-07T02:27:47;1.70;;;1.60;;
11681;SDS011;5897;42.640;23.310;2023-08-07T02:30:15;1.48;;;1.38;;
11681;SDS011;5897;42.640;23.310;2023-08-07T02:32:42;1.42;;;1.33;;
11681;SDS011;5897;42.640;23.310;2023-08-07T02:35:10;2.55;;;1.85;;
11681;SDS011;5897;42.640;23.310;2023-08-07T02:37:37;1.60;;;1.50;;
11681;SDS011;5897;42.640;23.310;2023-08-07T02:40:04;5.10;;;1.55;;
11681;SDS011;5897;42.640;23.310;2023-08-07T02:42:32;4.65;;;1.70;;
11681;SDS011;5897;42.640;23.310;2023-08-07T02:44:58;2.88;;;1.60;;
11681;SDS011;5897;42.640;23.310;2023-08-07T02:47:26;1.83;;;1.73;;
11681;SDS011;5897;42.640;23.310;2023-08-07T02:49:53;1.63;;;1.50;;
11681;SDS011;5897;42.640;23.310;2023-08-07T02:52:20;1.70;;;1.60;;
11681;SDS011;5897;42.640;23.310;2023-08-07T02:54:47;2.00;;;1.77;;
11681;SDS011;5897;42.640;23.310;2023-08-07T02:57:13;1.70;;;1.50;;
11681;SDS011;5897;42.640;23.310;2023-08-07T02:59:40;1.95;;;1.83;;
11681;SDS011;5897;42.640;23.310;2023-08-07T03:02:07;1.90;;;1.40;;
11681;SDS011;5897;42.640;23.310;2023-08-07T03:04:35;2.03;;;1.80;;
11681;SDS011;5897;42.640;23.310;2023-08-07T03:07:02;2.28;;;2.08;;
11681;SDS011;5897;42.640;23.310;2023-08-07T03:09:29;2.20;;;2.00;;
11681;SDS011;5897;42.640;23.310;2023-08-07T03:11:56;2.10;;;1.90;;
11681;SDS011;5897;42.640;23.310;2023-08-07T03:14:28;4.43;;;2.22;;
11681;SDS011;5897;42.640;23.310;2023-08-07T03:16:55;3.00;;;2.00;;
11681;SDS011;5897;42.640;23.310;2023-08-07T03:19:21;2.65;;;1.80;;
11681;SDS011;5897;42.640;23.310;2023-08-07T03:21:49;2.40;;;2.13;;
11681;SDS011;5897;42.640;23.310;2023-08-07T03:24:16;3.45;;;2.03;;
11681;SDS011;5897;42.640;23.310;2023-08-07T03:26:43;2.22;;;2.03;;
11681;SDS011;5897;42.640;23.310;2023-08-07T03:29:12;3.63;;;2.20;;
11681;SDS011;5897;42.640;23.310;2023-08-07T03:31:39;2.72;;;2.20;;
11681;SDS011;5897;42.640;23.310;2023-08-07T03:34:06;2.10;;;1.90;;
11681;SDS011;5897;42.640;23.310;2023-08-07T03:36:32;2.65;;;2.45;;
11681;SDS011;5897;42.640;23.310;2023-08-07T03:39:01;2.35;;;2.22;;
11681;SDS011;5897;42.640;23.310;2023-08-07T03:41:28;2.65;;;2.45;;
11681;SDS011;5897;42.640;23.310;2023-08-07T03:43:54;4.07;;;2.50;;
11681;SDS011;5897;42.640;23.310;2023-08-07T03:46:21;2.72;;;2.53;;
11681;SDS011;5897;42.640;23.310;2023-08-07T03:48:48;3.60;;;2.30;;
11681;SDS011;5897;42.640;23.310;2023-08-07T03:51:15;3.42;;;2.30;;
11681;SDS011;5897;42.640;23.310;2023-08-07T03:53:42;2.53;;;2.33;;
11681;SDS011;5897;42.640;23.310;2023-08-07T03:56:10;4.50;;;2.22;;
11681;SDS011;5897;42.640;23.310;2023-08-07T03:58:37;2.80;;;2.60;;
11681;SDS011;5897;42.640;23.310;2023-08-07T04:01:04;2.75;;;2.55;;
11681;SDS011;5897;42.640;23.310;2023-08-07T04:03:30;3.20;;;2.60;;
11681;SDS011;5897;42.640;23.310;2023-08-07T04:05:57;2.53;;;2.33;;
11681;SDS011;5897;42.640;23.310;2023-08-07T04:08:25;2.30;;;2.10;;
11681;SDS011;5897;42.640;23.310;2023-08-07T04:10:59;2.67;;;2.40;;
11681;SDS011;5897;42.640;23.310;2023-08-07T04:13:28;2.85;;;2.30;;
11681;SDS011;5897;42.640;23.310;2023-08-07T04:15:55;3.00;;;2.40;;
11681;SDS011;5897;42.640;23.310;2023-08-07T04:18:22;3.50;;;2.50;;
11681;SDS011;5897;42.640;23.310;2023-08-07T04:20:49;2.22;;;2.13;;
11681;SDS011;5897;42.640;23.310;2023-08-07T04:23:17;2.22;;;2.00;;
11681;SDS011;5897;42.640;23.310;2023-08-07T04:25:44;2.47;;;2.28;;
11681;SDS011;5897;42.640;23.310;2023-08-07T04:28:11;2.50;;;2.30;;
11681;SDS011;5897;42.640;23.310;2023-08-07T04:30:40;2.50;;;2.20;;
11681;SDS011;5897;42.640;23.310;2023-08-07T04:33:06;2.35;;;2.25;;
11681;SDS011;5897;42.640;23.310;2023-08-07T04:35:33;2.22;;;2.10;;
11681;SDS011;5897;42.640;23.310;2023-08-07T04:38:00;2.63;;;2.40;;
11681;SDS011;5897;42.640;23.310;2023-08-07T04:40:27;7.57;;;2.53;;
11681;SDS011;5897;42.640;23.310;2023-08-07T04:42:54;4.80;;;3.75;;
11681;SDS011;5897;42.640;23.310;2023-08-07T04:45:21;6.13;;;2.70;;
11681;SDS011;5897;42.640;23.310;2023-08-07T04:47:49;2.47;;;2.28;;
11681;SDS011;5897;42.640;23.310;2023-08-07T04:50:16;4.40;;;2.70;;
11681;SDS011;5897;42.640;23.310;2023-08-07T04:52:43;2.95;;;2.60;;
11681;SDS011;5897;42.640;23.310;2023-08-07T04:55:10;3.33;;;2.15;;
11681;SDS011;5897;42.640;23.310;2023-08-07T04:57:37;3.10;;;2.35;;
11681;SDS011;5897;42.640;23.310;2023-08-07T05:00:04;2.97;;;2.67;;
11681;SDS011;5897;42.640;23.310;2023-08-07T05:02:32;2.72;;;2.35;;
11681;SDS011;5897;42.640;23.310;2023-08-07T05:05:01;2.65;;;2.33;;
11681;SDS011;5897;42.640;23.310;2023-08-07T05:07:29;2.65;;;2.30;;
11681;SDS011;5897;42.640;23.310;2023-08-07T05:09:55;3.80;;;2.50;;
11681;SDS011;5897;42.640;23.310;2023-08-07T05:12:24;2.65;;;2.20;;
11681;SDS011;5897;42.640;23.310;2023-08-07T05:14:51;3.33;;;2.45;;
11681;SDS011;5897;42.640;23.310;2023-08-07T05:17:19;2.60;;;2.40;;
11681;SDS011;5897;42.640;23.310;2023-08-07T05:19:46;2.15;;;2.03;;
11681;SDS011;5897;42.640;23.310;2023-08-07T05:22:15;3.38;;;2.30;;
11681;SDS011;5897;42.640;23.310;2023-08-07T05:24:42;2.72;;;2.53;;
11681;SDS011;5897;42.640;23.310;2023-08-07T05:27:10;2.85;;;2.53;;
11681;SDS011;5897;42.640;23.310;2023-08-07T05:29:37;2.47;;;2.15;;
11681;SDS011;5897;42.640;23.310;2023-08-07T05:32:08;2.58;;;2.38;;
11681;SDS011;5897;42.640;23.310;2023-08-07T05:34:37;2.20;;;2.10;;
11681;SDS011;5897;42.640;23.310;2023-08-07T05:37:04;2.30;;;2.10;;
11681;SDS011;5897;42.640;23.310;2023-08-07T05:39:33;2.40;;;2.20;;
11681;SDS011;5897;42.640;23.310;2023-08-07T05:42:01;2.50;;;2.30;;
11681;SDS011;5897;42.640;23.310;2023-08-07T05:44:28;4.97;;;2.35;;
11681;SDS011;5897;42.640;23.310;2023-08-07T05:46:55;4.03;;;2.30;;
11681;SDS011;5897;42.640;23.310;2023-08-07T05:49:22;2.22;;;2.13;;
11681;SDS011;5897;42.640;23.310;2023-08-07T05:51:49;5.82;;;2.40;;
11681;SDS011;5897;42.640;23.310;2023-08-07T05:54:16;2.35;;;2.20;;
11681;SDS011;5897;42.640;23.310;2023-08-07T05:56:44;3.80;;;2.38;;
11681;SDS011;5897;42.640;23.310;2023-08-07T05:59:11;3.40;;;2.40;;
11681;SDS011;5897;42.640;23.310;2023-08-07T06:01:37;3.20;;;2.40;;
11681;SDS011;5897;42.640;23.310;2023-08-07T06:04:06;7.03;;;2.40;;
11681;SDS011;5897;42.640;23.310;2023-08-07T06:06:32;2.67;;;2.15;;
11681;SDS011;5897;42.640;23.310;2023-08-07T06:09:01;2.40;;;2.20;;
11681;SDS011;5897;42.640;23.310;2023-08-07T06:11:28;2.75;;;2.20;;
11681;SDS011;5897;42.640;23.310;2023-08-07T06:13:57;2.42;;;2.30;;
11681;SDS011;5897;42.640;23.310;2023-08-07T06:16:25;2.70;;;2.22;;
11681;SDS011;5897;42.640;23.310;2023-08-07T06:18:52;4.75;;;2.45;;
11681;SDS011;5897;42.640;23.310;2023-08-07T06:21:19;2.67;;;2.30;;
11681;SDS011;5897;42.640;23.310;2023-08-07T06:23:46;3.55;;;2.50;;
11681;SDS011;5897;42.640;23.310;2023-08-07T06:26:13;2.47;;;2.28;;
11681;SDS011;5897;42.640;23.310;2023-08-07T06:28:40;2.58;;;2.38;;
11681;SDS011;5897;42.640;23.310;2023-08-07T06:31:09;3.70;;;2.55;;
11681;SDS011;5897;42.640;23.310;2023-08-07T06:33:37;2.85;;;2.05;;
11681;SDS011;5897;42.640;23.310;2023-08-07T06:36:07;2.72;;;2.10;;
11681;SDS011;5897;42.640;23.310;2023-08-07T06:38:35;2.38;;;1.90;;
11681;SDS011;5897;42.640;23.310;2023-08-07T06:41:02;1.88;;;1.75;;
11681;SDS011;5897;42.640;23.310;2023-08-07T06:43:28;1.70;;;1.60;;
11681;SDS011;5897;42.640;23.310;2023-08-07T06:45:56;2.03;;;1.33;;
11681;SDS011;5897;42.640;23.310;2023-08-07T06:48:24;1.40;;;1.30;;
11681;SDS011;5897;42.640;23.310;2023-08-07T06:50:51;1.40;;;1.30;;
11681;SDS011;5897;42.640;23.310;2023-08-07T06:53:18;1.33;;;1.23;;
11681;SDS011;5897;42.640;23.310;2023-08-07T06:55:45;2.50;;;1.67;;
11681;SDS011;5897;42.640;23.310;2023-08-07T06:58:12;6.70;;;1.75;;
11681;SDS011;5897;42.640;23.310;2023-08-07T07:00:39;5.55;;;1.42;;
11681;SDS011;5897;42.640;23.310;2023-08-07T07:03:06;1.38;;;1.30;;
11681;SDS011;5897;42.640;23.310;2023-08-07T07:05:36;3.65;;;1.38;;
11681;SDS011;5897;42.640;23.310;2023-08-07T07:08:03;1.58;;;1.35;;
11681;SDS011;5897;42.640;23.310;2023-08-07T07:10:30;6.53;;;2.00;;
11681;SDS011;5897;42.640;23.310;2023-08-07T07:12:58;3.70;;;1.42;;
11681;SDS011;5897;42.640;23.310;2023-08-07T07:15:24;2.17;;;1.52;;
11681;SDS011;5897;42.640;23.310;2023-08-07T07:17:51;4.57;;;3.10;;
11681;SDS011;5897;42.640;23.310;2023-08-07T07:20:18;2.40;;;2.20;;
11681;SDS011;5897;42.640;23.310;2023-08-07T07:22:46;1.40;;;1.30;;
11681;SDS011;5897;42.640;23.310;2023-08-07T07:25:13;1.45;;;1.20;;
11681;SDS011;5897;42.640;23.310;2023-08-07T07:27:40;2.45;;;1.30;;
11681;SDS011;5897;42.640;23.310;2023-08-07T07:30:07;2.40;;;1.48;;
11681;SDS011;5897;42.640;23.310;2023-08-07T07:32:35;2.80;;;1.63;;
11681;SDS011;5897;42.640;23.310;2023-08-07T07:35:01;1.70;;;1.40;;
11681;SDS011;5897;42.640;23.310;2023-08-07T07:37:29;1.27;;;1.17;;
11681;SDS011;5897;42.640;23.310;2023-08-07T07:39:57;2.42;;;1.33;;
11681;SDS011;5897;42.640;23.310;2023-08-07T07:42:24;1.23;;;1.13;;
11681;SDS011;5897;42.640;23.310;2023-08-07T07:44:51;1.45;;;1.35;;
11681;SDS011;5897;42.640;23.310;2023-08-07T07:47:18;1.83;;;1.20;;
11681;SDS011;5897;42.640;23.310;2023-08-07T07:49:46;3.60;;;1.60;;
11681;SDS011;5897;42.640;23.310;2023-08-07T07:52:13;1.50;;;1.40;;
11681;SDS011;5897;42.640;23.310;2023-08-07T07:54:40;1.35;;;1.25;;
11681;SDS011;5897;42.640;23.310;2023-08-07T07:57:08;1.98;;;1.05;;
11681;SDS011;5897;42.640;23.310;2023-08-07T07:59:35;1.15;;;1.10;;
11681;SDS011;5897;42.640;23.310;2023-08-07T08:02:02;4.10;;;1.42;;
11681;SDS011;5897;42.640;23.310;2023-08-07T08:04:29;2.78;;;1.15;;
11681;SDS011;5897;42.640;23.310;2023-08-07T08:06:56;3.08;;;1.20;;
11681;SDS011;5897;42.640;23.310;2023-08-07T08:09:24;1.40;;;1.25;;
11681;SDS011;5897;42.640;23.310;2023-08-07T08:11:51;2.10;;;1.30;;
11681;SDS011;5897;42.640;23.310;2023-08-07T08:14:19;1.30;;;1.20;;
11681;SDS011;5897;42.640;23.310;2023-08-07T08:16:46;1.45;;;1.35;;
11681;SDS011;5897;42.640;23.310;2023-08-07T08:19:13;2.30;;;1.20;;
11681;SDS011;5897;42.640;23.310;2023-08-07T08:21:41;2.28;;;1.15;;
11681;SDS011;5897;42.640;23.310;2023-08-07T08:24:08;2.45;;;1.42;;
11681;SDS011;5897;42.640;23.310;2023-08-07T08:26:35;1.85;;;1.40;;
11681;SDS011;5897;42.640;23.310;2023-08-07T08:29:01;3.17;;;1.35;;
11681;SDS011;5897;42.640;23.310;2023-08-07T08:31:32;1.75;;;1.20;;
11681;SDS011;5897;42.640;23.310;2023-08-07T08:33:59;2.63;;;1.35;;
11681;SDS011;5897;42.640;23.310;2023-08-07T08:36:26;1.60;;;1.45;;
11681;SDS011;5897;42.640;23.310;2023-08-07T08:38:53;2.60;;;1.40;;
11681;SDS011;5897;42.640;23.310;2023-08-07T08:41:20;2.42;;;1.33;;
11681;SDS011;5897;42.640;23.310;2023-08-07T08:43:47;5.97;;;1.60;;
11681;SDS011;5897;42.640;23.310;2023-08-07T08:46:17;6.50;;;3.70;;
11681;SDS011;5897;42.640;23.310;2023-08-07T08:48:50;2.25;;;1.77;;
11681;SDS011;5897;42.640;23.310;2023-08-07T08:51:17;1.52;;;1.27;;
11681;SDS011;5897;42.640;23.310;2023-08-07T08:53:46;3.05;;;1.45;;
11681;SDS011;5897;42.640;23.310;2023-08-07T08:56:14;2.03;;;1.10;;
11681;SDS011;5897;42.640;23.310;2023-08-07T08:58:42;1.50;;;1.40;;
11681;SDS011;5897;42.640;23.310;2023-08-07T09:01:09;1.83;;;1.30;;
11681;SDS011;5897;42.640;23.310;2023-08-07T09:03:38;2.55;;;1.20;;
11681;SDS011;5897;42.640;23.310;2023-08-07T09:06:06;3.13;;;1.40;;
11681;SDS011;5897;42.640;23.310;2023-08-07T09:08:34;1.50;;;1.35;;
11681;SDS011;5897;42.640;23.310;2023-08-07T09:11:02;1.95;;;1.38;;
11681;SDS011;5897;42.640;23.310;2023-08-07T09:13:29;2.60;;;1.92;;
11681;SDS011;5897;42.640;23.310;2023-08-07T09:15:59;2.42;;;1.20;;
11681;SDS011;5897;42.640;23.310;2023-08-07T09:18:28;1.73;;;1.33;;
11681;SDS011;5897;42.640;23.310;2023-08-07T09:20:56;4.10;;;1.20;;
11681;SDS011;5897;42.640;23.310;2023-08-07T09:23:25;1.23;;;1.13;;
11681;SDS011;5897;42.640;23.310;2023-08-07T09:25:58;2.50;;;1.60;;
11681;SDS011;5897;42.640;23.310;2023-08-07T09:28:27;1.50;;;1.10;;
11681;SDS011;5897;42.640;23.310;2023-08-07T09:30:55;1.33;;;1.23;;
11681;SDS011;5897;42.640;23.310;2023-08-07T09:33:25;2.67;;;1.30;;
11681;SDS011;5897;42.640;23.310;2023-08-07T09:35:52;2.38;;;1.00;;
11681;SDS011;5897;42.640;23.310;2023-08-07T09:38:21;3.13;;;1.10;;
11681;SDS011;5897;42.640;23.310;2023-08-07T09:40:53;3.67;;;1.25;;
11681;SDS011;5897;42.640;23.310;2023-08-07T09:43:23;1.30;;;1.20;;
11681;SDS011;5897;42.640;23.310;2023-08-07T09:45:50;2.55;;;1.50;;
11681;SDS011;5897;42.640;23.310;2023-08-07T09:48:20;3.47;;;1.20;;
11681;SDS011;5897;42.640;23.310;2023-08-07T09:50:49;0.98;;;0.98;;
11681;SDS011;5897;42.640;23.310;2023-08-07T09:53:16;1.98;;;1.30;;
11681;SDS011;5897;42.640;23.310;2023-08-07T09:55:43;1.50;;;1.25;;
11681;SDS011;5897;42.640;23.310;2023-08-07T09:58:11;1.58;;;1.20;;
11681;SDS011;5897;42.640;23.310;2023-08-07T10:00:39;3.35;;;1.30;;
11681;SDS011;5897;42.640;23.310;2023-08-07T10:03:06;3.92;;;1.58;;
11681;SDS011;5897;42.640;23.310;2023-08-07T10:05:33;7.80;;;1.55;;
11681;SDS011;5897;42.640;23.310;2023-08-07T10:08:00;3.25;;;1.10;;
11681;SDS011;5897;42.640;23.310;2023-08-07T10:10:28;1.20;;;1.00;;
11681;SDS011;5897;42.640;23.310;2023-08-07T10:12:55;3.35;;;1.40;;
11681;SDS011;5897;42.640;23.310;2023-08-07T10:15:28;1.20;;;1.10;;
11681;SDS011;5897;42.640;23.310;2023-08-07T10:17:57;1.20;;;1.10;;
11681;SDS011;5897;42.640;23.310;2023-08-07T10:20:24;2.17;;;1.23;;
11681;SDS011;5897;42.640;23.310;2023-08-07T10:22:52;2.58;;;1.35;;
11681;SDS011;5897;42.640;23.310;2023-08-07T10:25:23;2.30;;;1.10;;
11681;SDS011;5897;42.640;23.310;2023-08-07T10:27:52;1.20;;;1.00;;
11681;SDS011;5897;42.640;23.310;2023-08-07T10:30:21;1.30;;;1.20;;
11681;SDS011;5897;42.640;23.310;2023-08-07T10:32:51;3.33;;;1.25;;
11681;SDS011;5897;42.640;23.310;2023-08-07T10:35:25;1.92;;;1.08;;
11681;SDS011;5897;42.640;23.310;2023-08-07T10:37:57;1.98;;;1.27;;
11681;SDS011;5897;42.640;23.310;2023-08-07T10:40:32;1.83;;;1.25;;
11681;SDS011;5897;42.640;23.310;2023-08-07T10:42:59;0.98;;;0.90;;
11681;SDS011;5897;42.640;23.310;2023-08-07T10:45:37;1.58;;;1.23;;
11681;SDS011;5897;42.640;23.310;2023-08-07T10:48:07;2.95;;;1.58;;
11681;SDS011;5897;42.640;23.310;2023-08-07T10:50:35;2.17;;;1.20;;
11681;SDS011;5897;42.640;23.310;2023-08-07T10:53:18;2.75;;;1.15;;
11681;SDS011;5897;42.640;23.310;2023-08-07T10:55:47;3.53;;;1.15;;
11681;SDS011;5897;42.640;23.310;2023-08-07T11:01:15;2.63;;;1.25;;
11681;SDS011;5897;42.640;23.310;2023-08-07T11:03:45;2.90;;;1.48;;
11681;SDS011;5897;42.640;23.310;2023-08-07T11:06:12;3.65;;;1.30;;
11681;SDS011;5897;42.640;23.310;2023-08-07T11:08:39;1.52;;;1.15;;
11681;SDS011;5897;42.640;23.310;2023-08-07T11:11:07;2.22;;;1.10;;
11681;SDS011;5897;42.640;23.310;2023-08-07T11:13:34;2.47;;;1.20;;
11681;SDS011;5897;42.640;23.310;2023-08-07T11:16:01;2.72;;;1.08;;
11681;SDS011;5897;42.640;23.310;2023-08-07T11:18:28;2.65;;;1.02;;
11681;SDS011;5897;42.640;23.310;2023-08-07T11:20:58;1.40;;;0.98;;
11681;SDS011;5897;42.640;23.310;2023-08-07T11:23:26;2.97;;;1.00;;
11681;SDS011;5897;42.640;23.310;2023-08-07T11:25:54;1.25;;;1.10;;
11681;SDS011;5897;42.640;23.310;2023-08-07T11:28:21;3.17;;;1.20;;
11681;SDS011;5897;42.640;23.310;2023-08-07T11:30:50;1.40;;;0.90;;
11681;SDS011;5897;42.640;23.310;2023-08-07T11:33:18;3.83;;;1.27;;
11681;SDS011;5897;42.640;23.310;2023-08-07T11:35:46;2.15;;;1.10;;
11681;SDS011;5897;42.640;23.310;2023-08-07T11:38:15;4.72;;;1.00;;
11681;SDS011;5897;42.640;23.310;2023-08-07T11:40:56;4.43;;;1.30;;
11681;SDS011;5897;42.640;23.310;2023-08-07T11:43:26;2.15;;;1.20;;
11681;SDS011;5897;42.640;23.310;2023-08-07T11:45:53;3.20;;;1.23;;
11681;SDS011;5897;42.640;23.310;2023-08-07T11:48:23;2.25;;;1.13;;
11681;SDS011;5897;42.640;23.310;2023-08-07T11:50:51;4.72;;;1.30;;
11681;SDS011;5897;42.640;23.310;2023-08-07T11:53:19;4.03;;;3.08;;
11681;SDS011;5897;42.640;23.310;2023-08-07T11:55:47;2.42;;;1.50;;
11681;SDS011;5897;42.640;23.310;2023-08-07T11:58:18;1.85;;;1.30;;
11681;SDS011;5897;42.640;23.310;2023-08-07T12:00:46;4.43;;;1.23;;
11681;SDS011;5897;42.640;23.310;2023-08-07T12:03:26;4.40;;;1.33;;
11681;SDS011;5897;42.640;23.310;2023-08-07T12:06:02;5.38;;;1.80;;
11681;SDS011;5897;42.640;23.310;2023-08-07T12:08:35;3.08;;;1.70;;
11681;SDS011;5897;42.640;23.310;2023-08-07T12:11:03;3.88;;;1.25;;
11681;SDS011;5897;42.640;23.310;2023-08-07T12:13:31;5.45;;;1.30;;
11681;SDS011;5897;42.640;23.310;2023-08-07T12:16:00;3.17;;;1.20;;
11681;SDS011;5897;42.640;23.310;2023-08-07T12:18:29;3.45;;;1.08;;
11681;SDS011;5897;42.640;23.310;2023-08-07T12:20:58;8.20;;;1.40;;
11681;SDS011;5897;42.640;23.310;2023-08-07T12:23:25;3.47;;;1.10;;
11681;SDS011;5897;42.640;23.310;2023-08-07T12:25:53;1.23;;;1.13;;
11681;SDS011;5897;42.640;23.310;2023-08-07T12:28:20;1.58;;;1.05;;
11681;SDS011;5897;42.640;23.310;2023-08-07T12:30:47;2.53;;;1.20;;
11681;SDS011;5897;42.640;23.310;2023-08-07T12:33:14;1.90;;;1.13;;
11681;SDS011;5897;42.640;23.310;2023-08-07T12:35:41;1.00;;;0.98;;
11681;SDS011;5897;42.640;23.310;2023-08-07T12:38:08;1.70;;;1.02;;
11681;SDS011;5897;42.640;23.310;2023-08-07T12:40:35;5.07;;;1.38;;
11681;SDS011;5897;42.640;23.310;2023-08-07T12:43:04;1.30;;;1.00;;
11681;SDS011;5897;42.640;23.310;2023-08-07T12:45:31;1.05;;;1.05;;
11681;SDS011;5897;42.640;23.310;2023-08-07T12:47:58;3.00;;;1.20;;
11681;SDS011;5897;42.640;23.310;2023-08-07T12:50:25;1.50;;;1.10;;
11681;SDS011;5897;42.640;23.310;2023-08-07T12:52:52;1.70;;;1.02;;
11681;SDS011;5897;42.640;23.310;2023-08-07T12:55:18;1.67;;;1.30;;
11681;SDS011;5897;42.640;23.310;2023-08-07T12:57:45;2.45;;;1.40;;
11681;SDS011;5897;42.640;23.310;2023-08-07T13:00:15;2.35;;;1.10;;
11681;SDS011;5897;42.640;23.310;2023-08-07T13:02:44;1.58;;;1.20;;
11681;SDS011;5897;42.640;23.310;2023-08-07T13:05:12;3.65;;;1.23;;
11681;SDS011;5897;42.640;23.310;2023-08-07T13:07:39;4.13;;;1.38;;
11681;SDS011;5897;42.640;23.310;2023-08-07T13:10:07;2.05;;;1.25;;
11681;SDS011;5897;42.640;23.310;2023-08-07T13:12:35;3.20;;;1.20;;
11681;SDS011;5897;42.640;23.310;2023-08-07T13:15:03;1.40;;;1.30;;
11681;SDS011;5897;42.640;23.310;2023-08-07T13:17:32;9.23;;;1.83;;
11681;SDS011;5897;42.640;23.310;2023-08-07T13:19:59;2.05;;;1.23;;
11681;SDS011;5897;42.640;23.310;2023-08-07T13:22:27;1.10;;;1.10;;
11681;SDS011;5897;42.640;23.310;2023-08-07T13:24:53;3.17;;;1.20;;
11681;SDS011;5897;42.640;23.310;2023-08-07T13:27:21;2.15;;;1.10;;
11681;SDS011;5897;42.640;23.310;2023-08-07T13:29:48;4.35;;;1.77;;
11681;SDS011;5897;42.640;23.310;2023-08-07T13:32:14;2.08;;;1.10;;
11681;SDS011;5897;42.640;23.310;2023-08-07T13:34:44;1.67;;;1.25;;
11681;SDS011;5897;42.640;23.310;2023-08-07T13:37:12;5.25;;;1.30;;
11681;SDS011;5897;42.640;23.310;2023-08-07T13:39:39;2.97;;;1.35;;
11681;SDS011;5897;42.640;23.310;2023-08-07T13:42:06;1.50;;;1.10;;
11681;SDS011;5897;42.640;23.310;2023-08-07T13:44:33;1.90;;;1.00;;
11681;SDS011;5897;42.640;23.310;2023-08-07T13:47:00;2.17;;;1.15;;
11681;SDS011;5897;42.640;23.310;2023-08-07T13:49:27;4.00;;;1.25;;
11681;SDS011;5897;42.640;23.310;2023-08-07T13:51:55;1.23;;;1.13;;
11681;SDS011;5897;42.640;23.310;2023-08-07T13:54:22;1.30;;;1.20;;
11681;SDS011;5897;42.640;23.310;2023-08-07T13:56:49;1.98;;;1.13;;
11681;SDS011;5897;42.640;23.310;2023-08-07T13:59:16;2.47;;;1.90;;
11681;SDS011;5897;42.640;23.310;2023-08-07T14:01:43;1.75;;;1.65;;
11681;SDS011;5897;42.640;23.310;2023-08-07T14:04:10;2.45;;;1.50;;
11681;SDS011;5897;42.640;23.310;2023-08-07T14:06:39;5.05;;;1.60;;
11681;SDS011;5897;42.640;23.310;2023-08-07T14:09:08;2.95;;;1.40;;
11681;SDS011;5897;42.640;23.310;2023-08-07T14:11:36;3.65;;;1.50;;
11681;SDS011;5897;42.640;23.310;2023-08-07T14:14:02;2.58;;;1.27;;
11681;SDS011;5897;42.640;23.310;2023-08-07T14:16:29;3.97;;;1.60;;
11681;SDS011;5897;42.640;23.310;2023-08-07T14:18:56;2.42;;;1.60;;
11681;SDS011;5897;42.640;23.310;2023-08-07T14:21:23;1.40;;;1.30;;
11681;SDS011;5897;42.640;23.310;2023-08-07T14:23:50;3.20;;;1.52;;
11681;SDS011;5897;42.640;23.310;2023-08-07T14:26:18;1.95;;;1.40;;
11681;SDS011;5897;42.640;23.310;2023-08-07T14:28:46;1.75;;;1.30;;
11681;SDS011;5897;42.640;23.310;2023-08-07T14:31:12;1.50;;;1.40;;
11681;SDS011;5897;42.640;23.310;2023-08-07T14:33:39;5.05;;;1.20;;
11681;SDS011;5897;42.640;23.310;2023-08-07T14:36:06;1.40;;;1.15;;
11681;SDS011;5897;42.640;23.310;2023-08-07T14:38:33;1.40;;;1.30;;
11681;SDS011;5897;42.640;23.310;2023-08-07T14:41:00;1.80;;;1.40;;
11681;SDS011;5897;42.640;23.310;2023-08-07T14:43:29;1.67;;;1.13;;
11681;SDS011;5897;42.640;23.310;2023-08-07T14:45:56;3.88;;;1.30;;
11681;SDS011;5897;42.640;23.310;2023-08-07T14:48:23;5.35;;;1.55;;
11681;SDS011;5897;42.640;23.310;2023-08-07T14:50:50;2.95;;;1.55;;
11681;SDS011;5897;42.640;23.310;2023-08-07T14:53:17;2.28;;;1.60;;
11681;SDS011;5897;42.640;23.310;2023-08-07T14:55:44;3.65;;;1.52;;